sensor_id;sensor_type;location;lat;lon;timestamp;temperature;humidity
20524;DHT22;10420;48.542;12.270;2022-10-26T00:00:46;9.20;99.90
20524;DHT22;10420;48.542;12.270;2022-10-26T00:05:47;9.30;99.90
20524;DHT22;10420;48.542;12.270;2022-10-26T00:10:47;9.40;99.90
20524;DHT22;10420;48.542;12.270;2022-10-26T00:15:48;9.60;99.90
20524;DHT22;10420;48.542;12.270;2022-10-26T00:20:51;9.80;99.90
20524;DHT22;10420;48.542;12.270;2022-10-26T00:25:56;9.70;99.90
20524;DHT22;10420;48.542;12.270;2022-10-26T00:31:01;9.60;99.90
20524;DHT22;10420;48.542;12.270;2022-10-26T00:36:02;9.60;99.90
20524;DHT22;10420;48.542;12.270;2022-10-26T00:41:03;9.50;99.90
20524;DHT22;10420;48.542;12.270;2022-10-26T00:46:07;9.70;99.90
20524;DHT22;10420;48.542;12.270;2022-10-26T00:51:14;9.70;99.90
20524;DHT22;10420;48.542;12.270;2022-10-26T00:56:16;9.50;99.90
20524;DHT22;10420;48.542;12.270;2022-10-26T01:01:17;9.90;99.90
20524;DHT22;10420;48.542;12.270;2022-10-26T01:06:18;10.10;99.90
20524;DHT22;10420;48.542;12.270;2022-10-26T01:11:20;10.00;99.90
20524;DHT22;10420;48.542;12.270;2022-10-26T01:27:12;10.50;99.90
20524;DHT22;10420;48.542;12.270;2022-10-26T01:32:26;10.40;99.90
20524;DHT22;10420;48.542;12.270;2022-10-26T01:37:32;10.50;99.90
20524;DHT22;10420;48.542;12.270;2022-10-26T01:42:35;10.60;99.90
20524;DHT22;10420;48.542;12.270;2022-10-26T01:47:40;10.80;99.90
20524;DHT22;10420;48.542;12.270;2022-10-26T01:52:41;10.80;99.90
20524;DHT22;10420;48.542;12.270;2022-10-26T01:57:41;10.50;99.90
20524;DHT22;10420;48.542;12.270;2022-10-26T02:03:07;10.70;99.90
20524;DHT22;10420;48.542;12.270;2022-10-26T02:13:45;10.70;99.90
20524;DHT22;10420;48.542;12.270;2022-10-26T02:19:04;10.70;99.90
20524;DHT22;10420;48.542;12.270;2022-10-26T02:24:07;10.70;99.90
20524;DHT22;10420;48.542;12.270;2022-10-26T02:29:12;10.60;99.90
20524;DHT22;10420;48.542;12.270;2022-10-26T02:34:19;10.70;99.90
20524;DHT22;10420;48.542;12.270;2022-10-26T02:39:22;10.80;99.90
20524;DHT22;10420;48.542;12.270;2022-10-26T02:44:26;10.70;99.90
20524;DHT22;10420;48.542;12.270;2022-10-26T02:49:28;10.70;99.90
20524;DHT22;10420;48.542;12.270;2022-10-26T02:59:53;10.80;99.90
20524;DHT22;10420;48.542;12.270;2022-10-26T03:04:55;10.80;99.90
20524;DHT22;10420;48.542;12.270;2022-10-26T03:09:55;10.80;99.90
20524;DHT22;10420;48.542;12.270;2022-10-26T03:14:56;10.80;99.90
20524;DHT22;10420;48.542;12.270;2022-10-26T03:19:57;10.80;99.90
20524;DHT22;10420;48.542;12.270;2022-10-26T03:24:57;10.80;99.90
20524;DHT22;10420;48.542;12.270;2022-10-26T03:29:58;10.70;99.90
20524;DHT22;10420;48.542;12.270;2022-10-26T03:34:59;10.70;99.90
20524;DHT22;10420;48.542;12.270;2022-10-26T03:39:59;10.70;99.90
20524;DHT22;10420;48.542;12.270;2022-10-26T03:45:00;10.80;99.90
20524;DHT22;10420;48.542;12.270;2022-10-26T03:50:00;10.80;99.90
20524;DHT22;10420;48.542;12.270;2022-10-26T03:55:01;10.80;99.90
20524;DHT22;10420;48.542;12.270;2022-10-26T04:00:02;10.80;99.90
20524;DHT22;10420;48.542;12.270;2022-10-26T04:05:03;10.90;99.90
20524;DHT22;10420;48.542;12.270;2022-10-26T04:10:05;10.70;99.90
20524;DHT22;10420;48.542;12.270;2022-10-26T04:15:06;10.60;99.90
20524;DHT22;10420;48.542;12.270;2022-10-26T04:20:07;10.60;99.90
20524;DHT22;10420;48.542;12.270;2022-10-26T04:25:08;10.60;99.90
20524;DHT22;10420;48.542;12.270;2022-10-26T04:30:11;10.70;99.90
20524;DHT22;10420;48.542;12.270;2022-10-26T04:35:12;10.80;99.90
20524;DHT22;10420;48.542;12.270;2022-10-26T04:40:12;10.60;99.90
20524;DHT22;10420;48.542;12.270;2022-10-26T04:45:14;10.60;99.90
20524;DHT22;10420;48.542;12.270;2022-10-26T04:50:15;10.60;99.90
20524;DHT22;10420;48.542;12.270;2022-10-26T04:55:16;10.40;99.90
20524;DHT22;10420;48.542;12.270;2022-10-26T05:00:16;10.40;99.90
20524;DHT22;10420;48.542;12.270;2022-10-26T05:05:18;10.50;99.90
20524;DHT22;10420;48.542;12.270;2022-10-26T05:10:18;10.60;99.90
20524;DHT22;10420;48.542;12.270;2022-10-26T05:15:19;10.50;99.90
20524;DHT22;10420;48.542;12.270;2022-10-26T05:20:20;10.50;99.90
20524;DHT22;10420;48.542;12.270;2022-10-26T05:25:21;10.50;99.90
20524;DHT22;10420;48.542;12.270;2022-10-26T05:30:21;10.50;99.90
20524;DHT22;10420;48.542;12.270;2022-10-26T05:35:22;10.40;99.90
20524;DHT22;10420;48.542;12.270;2022-10-26T05:40:23;10.40;99.90
20524;DHT22;10420;48.542;12.270;2022-10-26T05:45:24;10.50;99.90
20524;DHT22;10420;48.542;12.270;2022-10-26T05:50:25;10.50;99.90
20524;DHT22;10420;48.542;12.270;2022-10-26T05:55:25;10.60;99.90
20524;DHT22;10420;48.542;12.270;2022-10-26T06:00:27;10.70;99.90
20524;DHT22;10420;48.542;12.270;2022-10-26T06:05:34;10.60;99.90
20524;DHT22;10420;48.542;12.270;2022-10-26T06:10:38;10.70;99.90
20524;DHT22;10420;48.542;12.270;2022-10-26T06:15:54;10.70;99.90
20524;DHT22;10420;48.542;12.270;2022-10-26T06:26:29;10.70;99.90
20524;DHT22;10420;48.542;12.270;2022-10-26T06:31:32;10.70;99.90
20524;DHT22;10420;48.542;12.270;2022-10-26T06:36:33;10.60;99.90
20524;DHT22;10420;48.542;12.270;2022-10-26T06:41:35;10.70;99.90
20524;DHT22;10420;48.542;12.270;2022-10-26T06:46:47;10.90;99.90
20524;DHT22;10420;48.542;12.270;2022-10-26T06:51:57;11.00;99.90
20524;DHT22;10420;48.542;12.270;2022-10-26T06:56:59;10.90;99.90
20524;DHT22;10420;48.542;12.270;2022-10-26T07:02:00;10.90;99.90
20524;DHT22;10420;48.542;12.270;2022-10-26T07:07:01;11.10;99.90
20524;DHT22;10420;48.542;12.270;2022-10-26T07:12:01;11.00;99.90
20524;DHT22;10420;48.542;12.270;2022-10-26T07:17:02;11.10;99.90
20524;DHT22;10420;48.542;12.270;2022-10-26T07:22:03;11.30;99.90
20524;DHT22;10420;48.542;12.270;2022-10-26T07:27:04;11.30;99.90
20524;DHT22;10420;48.542;12.270;2022-10-26T07:32:05;11.50;99.90
20524;DHT22;10420;48.542;12.270;2022-10-26T07:37:06;11.60;99.90
20524;DHT22;10420;48.542;12.270;2022-10-26T07:42:07;11.60;99.90
20524;DHT22;10420;48.542;12.270;2022-10-26T07:47:09;11.70;99.90
20524;DHT22;10420;48.542;12.270;2022-10-26T07:52:09;11.80;99.90
20524;DHT22;10420;48.542;12.270;2022-10-26T07:57:10;12.00;99.90
20524;DHT22;10420;48.542;12.270;2022-10-26T08:02:11;12.10;99.90
20524;DHT22;10420;48.542;12.270;2022-10-26T08:07:11;12.40;99.90
20524;DHT22;10420;48.542;12.270;2022-10-26T08:12:12;12.70;99.90
20524;DHT22;10420;48.542;12.270;2022-10-26T08:17:18;13.00;99.90
20524;DHT22;10420;48.542;12.270;2022-10-26T08:22:21;13.00;99.90
20524;DHT22;10420;48.542;12.270;2022-10-26T08:27:22;12.90;99.90
20524;DHT22;10420;48.542;12.270;2022-10-26T08:32:23;13.00;99.90
20524;DHT22;10420;48.542;12.270;2022-10-26T08:37:23;13.00;99.90
20524;DHT22;10420;48.542;12.270;2022-10-26T08:42:45;13.40;99.90
20524;DHT22;10420;48.542;12.270;2022-10-26T08:47:52;13.80;99.90
20524;DHT22;10420;48.542;12.270;2022-10-26T08:53:07;14.20;99.90
20524;DHT22;10420;48.542;12.270;2022-10-26T08:58:16;14.70;99.90
20524;DHT22;10420;48.542;12.270;2022-10-26T09:03:18;14.80;99.90
20524;DHT22;10420;48.542;12.270;2022-10-26T09:14:31;14.80;99.90
20524;DHT22;10420;48.542;12.270;2022-10-26T09:20:05;15.30;99.90
20524;DHT22;10420;48.542;12.270;2022-10-26T09:25:18;15.10;99.90
20524;DHT22;10420;48.542;12.270;2022-10-26T09:30:20;16.10;99.90
20524;DHT22;10420;48.542;12.270;2022-10-26T09:35:26;19.90;99.90
20524;DHT22;10420;48.542;12.270;2022-10-26T09:41:01;20.00;99.90
20524;DHT22;10420;48.542;12.270;2022-10-26T09:46:03;22.20;99.90
20524;DHT22;10420;48.542;12.270;2022-10-26T09:51:05;17.70;99.90
20524;DHT22;10420;48.542;12.270;2022-10-26T09:56:13;16.20;99.90
20524;DHT22;10420;48.542;12.270;2022-10-26T10:01:27;15.90;99.90
20524;DHT22;10420;48.542;12.270;2022-10-26T10:06:32;16.80;99.90
20524;DHT22;10420;48.542;12.270;2022-10-26T10:11:38;16.60;99.90
20524;DHT22;10420;48.542;12.270;2022-10-26T10:16:40;16.70;99.90
20524;DHT22;10420;48.542;12.270;2022-10-26T10:21:47;16.30;99.90
20524;DHT22;10420;48.542;12.270;2022-10-26T10:27:14;16.10;99.90
20524;DHT22;10420;48.542;12.270;2022-10-26T10:32:30;16.10;99.90
20524;DHT22;10420;48.542;12.270;2022-10-26T10:37:40;16.30;99.90
20524;DHT22;10420;48.542;12.270;2022-10-26T10:42:44;16.90;99.90
20524;DHT22;10420;48.542;12.270;2022-10-26T11:09:17;18.00;99.90
20524;DHT22;10420;48.542;12.270;2022-10-26T11:14:31;17.90;99.90
20524;DHT22;10420;48.542;12.270;2022-10-26T11:19:44;17.60;99.90
20524;DHT22;10420;48.542;12.270;2022-10-26T11:25:04;17.60;99.90
20524;DHT22;10420;48.542;12.270;2022-10-26T11:30:17;17.50;99.90
20524;DHT22;10420;48.542;12.270;2022-10-26T11:35:30;17.40;99.90
20524;DHT22;10420;48.542;12.270;2022-10-26T11:40:46;17.40;99.90
20524;DHT22;10420;48.542;12.270;2022-10-26T11:46:19;17.30;99.90
20524;DHT22;10420;48.542;12.270;2022-10-26T11:56:47;17.20;99.90
20524;DHT22;10420;48.542;12.270;2022-10-26T12:02:05;17.20;99.90
20524;DHT22;10420;48.542;12.270;2022-10-26T12:07:23;17.20;99.90
20524;DHT22;10420;48.542;12.270;2022-10-26T12:12:35;17.10;99.90
20524;DHT22;10420;48.542;12.270;2022-10-26T12:17:46;17.00;99.90
20524;DHT22;10420;48.542;12.270;2022-10-26T12:22:50;16.80;99.90
20524;DHT22;10420;48.542;12.270;2022-10-26T12:27:53;16.90;99.90
20524;DHT22;10420;48.542;12.270;2022-10-26T12:32:56;16.90;99.90
20524;DHT22;10420;48.542;12.270;2022-10-26T12:37:58;17.10;99.90
20524;DHT22;10420;48.542;12.270;2022-10-26T12:48:39;17.30;99.90
20524;DHT22;10420;48.542;12.270;2022-10-26T12:53:40;17.20;99.90
20524;DHT22;10420;48.542;12.270;2022-10-26T13:09:24;16.90;99.90
20524;DHT22;10420;48.542;12.270;2022-10-26T13:14:37;17.00;99.90
20524;DHT22;10420;48.542;12.270;2022-10-26T13:19:46;16.90;99.90
20524;DHT22;10420;48.542;12.270;2022-10-26T13:25:02;16.90;99.90
20524;DHT22;10420;48.542;12.270;2022-10-26T13:35:05;16.80;99.90
20524;DHT22;10420;48.542;12.270;2022-10-26T13:40:15;16.80;99.90
20524;DHT22;10420;48.542;12.270;2022-10-26T13:45:29;16.60;99.90
20524;DHT22;10420;48.542;12.270;2022-10-26T13:50:47;16.60;99.90
20524;DHT22;10420;48.542;12.270;2022-10-26T13:56:23;16.70;99.90
20524;DHT22;10420;48.542;12.270;2022-10-26T14:01:22;16.70;99.90
20524;DHT22;10420;48.542;12.270;2022-10-26T14:06:38;16.90;99.90
20524;DHT22;10420;48.542;12.270;2022-10-26T14:11:48;17.00;99.90
20524;DHT22;10420;48.542;12.270;2022-10-26T14:16:51;17.20;99.90
20524;DHT22;10420;48.542;12.270;2022-10-26T14:21:53;17.10;99.90
20524;DHT22;10420;48.542;12.270;2022-10-26T14:26:54;17.00;99.90
20524;DHT22;10420;48.542;12.270;2022-10-26T14:31:54;17.00;99.90
20524;DHT22;10420;48.542;12.270;2022-10-26T14:36:57;16.90;99.90
20524;DHT22;10420;48.542;12.270;2022-10-26T14:42:02;16.60;99.90
20524;DHT22;10420;48.542;12.270;2022-10-26T14:47:18;16.20;99.90
20524;DHT22;10420;48.542;12.270;2022-10-26T14:52:34;16.00;99.90
20524;DHT22;10420;48.542;12.270;2022-10-26T14:57:38;15.70;99.90
20524;DHT22;10420;48.542;12.270;2022-10-26T15:02:39;15.50;99.90
20524;DHT22;10420;48.542;12.270;2022-10-26T15:07:39;15.30;99.90
20524;DHT22;10420;48.542;12.270;2022-10-26T15:12:43;15.00;99.90
20524;DHT22;10420;48.542;12.270;2022-10-26T15:17:53;14.90;99.90
20524;DHT22;10420;48.542;12.270;2022-10-26T15:23:01;14.80;99.90
20524;DHT22;10420;48.542;12.270;2022-10-26T15:28:22;14.70;99.90
20524;DHT22;10420;48.542;12.270;2022-10-26T15:33:23;14.50;99.90
20524;DHT22;10420;48.542;12.270;2022-10-26T15:38:24;14.50;99.90
20524;DHT22;10420;48.542;12.270;2022-10-26T15:43:24;14.30;99.90
20524;DHT22;10420;48.542;12.270;2022-10-26T15:48:27;14.20;99.90
20524;DHT22;10420;48.542;12.270;2022-10-26T15:53:30;14.00;99.90
20524;DHT22;10420;48.542;12.270;2022-10-26T15:58:31;14.00;99.90
20524;DHT22;10420;48.542;12.270;2022-10-26T16:03:32;13.90;99.90
20524;DHT22;10420;48.542;12.270;2022-10-26T16:08:32;13.80;99.90
20524;DHT22;10420;48.542;12.270;2022-10-26T16:13:33;13.80;99.90
20524;DHT22;10420;48.542;12.270;2022-10-26T16:18:34;13.90;99.90
20524;DHT22;10420;48.542;12.270;2022-10-26T16:23:34;13.80;99.90
20524;DHT22;10420;48.542;12.270;2022-10-26T16:28:35;13.70;99.90
20524;DHT22;10420;48.542;12.270;2022-10-26T16:33:36;13.70;99.90
20524;DHT22;10420;48.542;12.270;2022-10-26T16:38:37;13.70;99.90
20524;DHT22;10420;48.542;12.270;2022-10-26T16:43:40;13.70;99.90
20524;DHT22;10420;48.542;12.270;2022-10-26T16:48:43;13.70;99.90
20524;DHT22;10420;48.542;12.270;2022-10-26T16:53:46;13.60;99.90
20524;DHT22;10420;48.542;12.270;2022-10-26T16:58:47;13.60;99.90
20524;DHT22;10420;48.542;12.270;2022-10-26T17:03:49;13.60;99.90
20524;DHT22;10420;48.542;12.270;2022-10-26T17:08:50;13.60;99.90
20524;DHT22;10420;48.542;12.270;2022-10-26T17:13:54;13.60;99.90
20524;DHT22;10420;48.542;12.270;2022-10-26T17:18:55;13.60;99.90
20524;DHT22;10420;48.542;12.270;2022-10-26T17:23:56;13.50;99.90
20524;DHT22;10420;48.542;12.270;2022-10-26T17:28:57;13.60;99.90
20524;DHT22;10420;48.542;12.270;2022-10-26T17:33:57;13.50;99.90
20524;DHT22;10420;48.542;12.270;2022-10-26T17:38:58;13.50;99.90
20524;DHT22;10420;48.542;12.270;2022-10-26T17:44:00;13.50;99.90
20524;DHT22;10420;48.542;12.270;2022-10-26T17:49:00;13.50;99.90
20524;DHT22;10420;48.542;12.270;2022-10-26T17:54:02;13.50;99.90
20524;DHT22;10420;48.542;12.270;2022-10-26T17:59:04;13.50;99.90
20524;DHT22;10420;48.542;12.270;2022-10-26T18:04:05;13.50;99.90
20524;DHT22;10420;48.542;12.270;2022-10-26T18:09:06;13.50;99.90
20524;DHT22;10420;48.542;12.270;2022-10-26T18:14:07;13.50;99.90
20524;DHT22;10420;48.542;12.270;2022-10-26T18:19:08;13.50;99.90
20524;DHT22;10420;48.542;12.270;2022-10-26T18:24:09;13.40;99.90
20524;DHT22;10420;48.542;12.270;2022-10-26T18:29:11;13.50;99.90
20524;DHT22;10420;48.542;12.270;2022-10-26T18:34:11;13.40;99.90
20524;DHT22;10420;48.542;12.270;2022-10-26T18:39:12;13.40;99.90
20524;DHT22;10420;48.542;12.270;2022-10-26T18:44:13;13.30;99.90
20524;DHT22;10420;48.542;12.270;2022-10-26T18:49:13;13.30;99.90
20524;DHT22;10420;48.542;12.270;2022-10-26T18:54:16;13.20;99.90
20524;DHT22;10420;48.542;12.270;2022-10-26T18:59:16;13.20;99.90
20524;DHT22;10420;48.542;12.270;2022-10-26T19:04:17;13.10;99.90
20524;DHT22;10420;48.542;12.270;2022-10-26T19:09:18;13.10;99.90
20524;DHT22;10420;48.542;12.270;2022-10-26T19:14:19;13.10;99.90
20524;DHT22;10420;48.542;12.270;2022-10-26T19:19:20;13.10;99.90
20524;DHT22;10420;48.542;12.270;2022-10-26T19:24:21;13.20;99.90
20524;DHT22;10420;48.542;12.270;2022-10-26T19:29:22;13.20;99.90
20524;DHT22;10420;48.542;12.270;2022-10-26T19:34:23;13.20;99.90
20524;DHT22;10420;48.542;12.270;2022-10-26T19:39:24;13.20;99.90
20524;DHT22;10420;48.542;12.270;2022-10-26T19:44:24;13.20;99.90
20524;DHT22;10420;48.542;12.270;2022-10-26T19:49:25;13.20;99.90
20524;DHT22;10420;48.542;12.270;2022-10-26T19:54:25;13.20;99.90
20524;DHT22;10420;48.542;12.270;2022-10-26T19:59:26;13.20;99.90
20524;DHT22;10420;48.542;12.270;2022-10-26T20:04:27;13.20;99.90
20524;DHT22;10420;48.542;12.270;2022-10-26T20:09:27;13.10;99.90
20524;DHT22;10420;48.542;12.270;2022-10-26T20:14:28;13.00;99.90
20524;DHT22;10420;48.542;12.270;2022-10-26T20:19:29;12.90;99.90
20524;DHT22;10420;48.542;12.270;2022-10-26T20:24:30;12.70;99.90
20524;DHT22;10420;48.542;12.270;2022-10-26T20:29:31;12.50;99.90
20524;DHT22;10420;48.542;12.270;2022-10-26T20:34:31;12.40;99.90
20524;DHT22;10420;48.542;12.270;2022-10-26T20:39:32;12.20;99.90
20524;DHT22;10420;48.542;12.270;2022-10-26T20:44:38;12.10;99.90
20524;DHT22;10420;48.542;12.270;2022-10-26T20:49:40;12.00;99.90
20524;DHT22;10420;48.542;12.270;2022-10-26T20:54:45;12.00;99.90
20524;DHT22;10420;48.542;12.270;2022-10-26T20:59:52;11.90;99.90
20524;DHT22;10420;48.542;12.270;2022-10-26T21:04:55;11.90;99.90
20524;DHT22;10420;48.542;12.270;2022-10-26T21:09:55;11.80;99.90
20524;DHT22;10420;48.542;12.270;2022-10-26T21:14:56;11.90;99.90
20524;DHT22;10420;48.542;12.270;2022-10-26T21:19:57;11.70;99.90
20524;DHT22;10420;48.542;12.270;2022-10-26T21:24:57;11.60;99.90
20524;DHT22;10420;48.542;12.270;2022-10-26T21:29:58;11.50;99.90
20524;DHT22;10420;48.542;12.270;2022-10-26T21:34:58;11.50;99.90
20524;DHT22;10420;48.542;12.270;2022-10-26T21:39:59;11.40;99.90
20524;DHT22;10420;48.542;12.270;2022-10-26T21:45:00;11.40;99.90
20524;DHT22;10420;48.542;12.270;2022-10-26T21:50:00;11.30;99.90
20524;DHT22;10420;48.542;12.270;2022-10-26T21:55:01;11.20;99.90
20524;DHT22;10420;48.542;12.270;2022-10-26T22:00:02;11.20;99.90
20524;DHT22;10420;48.542;12.270;2022-10-26T22:05:03;11.10;99.90
20524;DHT22;10420;48.542;12.270;2022-10-26T22:10:05;11.30;99.90
20524;DHT22;10420;48.542;12.270;2022-10-26T22:15:06;11.10;99.90
20524;DHT22;10420;48.542;12.270;2022-10-26T22:20:08;11.10;99.90
20524;DHT22;10420;48.542;12.270;2022-10-26T22:25:09;11.00;99.90
20524;DHT22;10420;48.542;12.270;2022-10-26T22:30:10;11.00;99.90
20524;DHT22;10420;48.542;12.270;2022-10-26T22:35:11;10.90;99.90
20524;DHT22;10420;48.542;12.270;2022-10-26T22:40:11;10.80;99.90
20524;DHT22;10420;48.542;12.270;2022-10-26T22:45:12;10.80;99.90
20524;DHT22;10420;48.542;12.270;2022-10-26T22:50:13;10.80;99.90
20524;DHT22;10420;48.542;12.270;2022-10-26T22:55:13;10.80;99.90
20524;DHT22;10420;48.542;12.270;2022-10-26T23:00:15;10.70;99.90
20524;DHT22;10420;48.542;12.270;2022-10-26T23:05:15;10.70;99.90
20524;DHT22;10420;48.542;12.270;2022-10-26T23:10:16;10.60;99.90
20524;DHT22;10420;48.542;12.270;2022-10-26T23:15:17;10.60;99.90
20524;DHT22;10420;48.542;12.270;2022-10-26T23:20:17;10.50;99.90
20524;DHT22;10420;48.542;12.270;2022-10-26T23:25:18;10.50;99.90
20524;DHT22;10420;48.542;12.270;2022-10-26T23:30:19;10.40;99.90
20524;DHT22;10420;48.542;12.270;2022-10-26T23:35:19;10.40;99.90
20524;DHT22;10420;48.542;12.270;2022-10-26T23:40:20;10.40;99.90
20524;DHT22;10420;48.542;12.270;2022-10-26T23:45:21;10.40;99.90
20524;DHT22;10420;48.542;12.270;2022-10-26T23:50:21;10.40;99.90
20524;DHT22;10420;48.542;12.270;2022-10-26T23:55:22;10.20;99.90
